Time;durP1;ratioP1;P1;durP2;ratioP2;P2;SDS_P1;SDS_P2;PMS_P1;PMS_P2;Temp;Humidity;BMP_temperature;BMP_pressure;BME280_temperature;BME280_humidity;BME280_pressure;Samples;Min_cycle;Max_cycle;Signal;HPM_P1;HPM_P2
2022/05/08 00:01:59;;;;;;;;;8.33;8.33;;;;;18.86;53.48;102085.63;5057780;28;45347;-81
2022/05/08 00:04:24;;;;;;;;;12.00;10.00;;;;;18.84;53.33;102083.00;5067755;28;45636;-81
2022/05/08 00:06:49;;;;;;;;;9.67;8.33;;;;;18.69;53.62;102071.22;5059960;28;47176;-81
2022/05/08 00:09:15;;;;;;;;;9.67;9.67;;;;;18.79;53.72;102084.25;5060031;28;45375;-82
2022/05/08 00:11:40;;;;;;;;;9.33;7.33;;;;;18.77;53.90;102087.03;5056272;28;45397;-81
2022/05/08 00:14:05;;;;;;;;;8.33;7.67;;;;;18.59;53.56;102061.00;5067470;28;45505;-81
2022/05/08 00:16:31;;;;;;;;;10.33;9.33;;;;;18.67;53.57;102078.53;5071869;28;46004;-82
2022/05/08 00:18:56;;;;;;;;;13.33;11.00;;;;;18.60;53.62;102068.19;5070289;28;45413;-82
2022/05/08 00:21:21;;;;;;;;;11.67;10.00;;;;;18.64;53.81;102072.47;5061318;28;45314;-82
2022/05/08 00:23:47;;;;;;;;;11.33;10.67;;;;;18.68;54.25;102087.50;5058038;28;45568;-81
2022/05/08 00:26:13;;;;;;;;;10.33;8.33;;;;;18.52;54.38;102065.91;5061793;28;45505;-81
2022/05/08 00:28:38;;;;;;;;;8.33;8.33;;;;;18.40;54.10;102045.84;5056629;28;45402;-82
2022/05/08 00:31:07;;;;;;;;;8.67;8.67;;;;;18.62;54.33;102088.72;5057187;28;45458;-82
2022/05/08 00:33:32;;;;;;;;;10.00;8.00;;;;;18.46;54.12;102063.56;5057238;28;45316;-81
2022/05/08 00:35:58;;;;;;;;;10.50;9.50;;;;;18.50;53.89;102078.63;5056890;28;46062;-82
2022/05/08 00:38:23;;;;;;;;;11.67;9.33;;;;;18.55;53.87;102090.91;5056819;28;45328;-81
2022/05/08 00:40:48;;;;;;;;;11.33;7.67;;;;;18.54;54.18;102099.06;5072844;28;45377;-81
2022/05/08 00:43:35;;;;;;;;;12.33;9.33;;;;;18.52;53.80;102099.19;5077461;28;45393;-81
2022/05/08 00:46:06;;;;;;;;;9.00;9.00;;;;;18.42;53.84;102080.88;5077523;28;47157;-81
2022/05/08 00:48:32;;;;;;;;;9.33;7.67;;;;;18.46;54.35;102090.53;5069287;28;45400;-81
2022/05/08 00:50:59;;;;;;;;;10.33;7.33;;;;;18.37;54.60;102094.63;5057531;28;45409;-81
2022/05/08 00:53:27;;;;;;;;;7.33;7.33;;;;;18.33;54.55;102083.13;5062236;28;45422;-81
2022/05/08 00:55:54;;;;;;;;;3.67;3.67;;;;;18.30;54.61;102083.28;5077443;28;46025;-81
2022/05/08 00:58:20;;;;;;;;;10.00;10.00;;;;;18.27;54.48;102079.91;5076775;28;45501;-81
2022/05/08 01:00:46;;;;;;;;;8.00;8.00;;;;;18.32;54.15;102085.91;5077490;28;45420;-81
2022/05/08 01:03:12;;;;;;;;;9.67;7.33;;;;;18.23;55.03;102081.88;5077660;28;46368;-82
2022/05/08 01:05:43;;;;;;;;;10.00;8.67;;;;;18.12;54.74;102068.09;5076791;28;45491;-82
2022/05/08 01:08:09;;;;;;;;;8.33;8.33;;;;;18.24;54.49;102094.44;5077242;28;45850;-82
2022/05/08 01:10:38;;;;;;;;;10.33;9.33;;;;;18.23;55.01;102091.81;5065863;28;45624;-82
2022/05/08 01:13:07;;;;;;;;;10.67;9.33;;;;;18.22;54.94;102099.03;5058196;28;45610;-82
2022/05/08 01:15:43;;;;;;;;;13.00;10.33;;;;;18.17;54.83;102093.03;5066921;28;46240;-81
2022/05/08 01:18:11;;;;;;;;;11.67;10.67;;;;;18.01;54.79;102060.59;5065354;28;45476;-82
2022/05/08 01:20:37;;;;;;;;;9.00;8.00;;;;;18.19;54.87;102087.53;5064557;28;45538;-81
2022/05/08 01:23:04;;;;;;;;;10.33;9.33;;;;;18.16;55.01;102091.25;5057124;28;45306;-82
2022/05/08 01:25:30;;;;;;;;;9.33;9.33;;;;;18.13;55.13;102092.31;5071968;27;46158;-82
2022/05/08 01:27:56;;;;;;;;;8.67;6.67;;;;;18.05;55.01;102072.97;5076111;28;45484;-82
2022/05/08 01:30:22;;;;;;;;;14.67;12.00;;;;;17.95;54.89;102065.44;5075503;28;45537;-81
2022/05/08 01:32:48;;;;;;;;;10.67;9.33;;;;;17.85;55.34;102040.78;5077053;28;45283;-82
2022/05/08 01:35:13;;;;;;;;;10.00;8.67;;;;;17.99;55.30;102061.63;5064521;28;45470;-82
2022/05/08 01:37:38;;;;;;;;;12.67;11.67;;;;;17.92;55.44;102053.00;5056354;28;45236;-81
2022/05/08 01:40:04;;;;;;;;;10.00;10.00;;;;;18.02;55.46;102080.34;5056596;28;45748;-81
2022/05/08 01:42:30;;;;;;;;;12.00;9.67;;;;;17.99;55.59;102084.09;5075718;28;45648;-81
2022/05/08 01:44:55;;;;;;;;;11.67;11.33;;;;;17.99;55.62;102089.47;5076702;28;45917;-81
2022/05/08 01:50:07;;;;;;;;;11.67;10.33;;;;;17.88;55.64;102062.19;5071559;28;45509;-81
2022/05/08 01:52:32;;;;;;;;;14.67;10.33;;;;;17.90;55.71;102076.47;5076204;28;45636;-81
2022/05/08 01:54:58;;;;;;;;;17.33;13.67;;;;;17.84;55.74;102075.00;5056139;28;47278;-81
2022/05/08 01:57:23;;;;;;;;;16.67;12.00;;;;;17.78;55.95;102067.19;5055792;28;45459;-82
2022/05/08 01:59:48;;;;;;;;;14.33;12.33;;;;;17.70;56.48;102059.50;5060242;28;45861;-81
2022/05/08 02:02:14;;;;;;;;;12.33;11.33;;;;;17.80;55.86;102081.47;5076530;28;45590;-81
2022/05/08 02:04:40;;;;;;;;;14.67;11.67;;;;;17.78;56.05;102085.19;5075693;28;46054;-81
2022/05/08 02:07:05;;;;;;;;;13.33;12.33;;;;;17.61;56.34;102054.59;5076283;28;45477;-81
2022/05/08 02:09:31;;;;;;;;;13.00;11.00;;;;;17.65;56.70;102068.75;5076296;28;45404;-82
2022/05/08 02:11:56;;;;;;;;;16.33;15.33;;;;;17.59;56.54;102058.31;5071200;28;45366;-81
2022/05/08 02:14:21;;;;;;;;;15.67;13.33;;;;;17.74;56.86;102076.38;5064208;28;46146;-81
2022/05/08 02:16:47;;;;;;;;;17.33;14.33;;;;;17.67;56.90;102072.25;5069355;28;45411;-81
2022/05/08 02:19:12;;;;;;;;;18.67;17.33;;;;;17.68;56.81;102080.28;5074597;28;45453;-81
2022/05/08 02:21:38;;;;;;;;;14.00;13.00;;;;;17.41;56.83;102036.75;5070399;28;45380;-81
2022/05/08 02:24:03;;;;;;;;;16.00;13.33;;;;;17.37;57.35;102040.56;5076015;28;45507;-81
2022/05/08 02:26:29;;;;;;;;;18.00;18.00;;;;;17.55;57.26;102072.91;5064720;28;45474;-81
2022/05/08 02:28:54;;;;;;;;;18.33;16.67;;;;;17.61;57.35;102089.63;5059358;28;45541;-81
2022/05/08 02:31:19;;;;;;;;;17.00;15.00;;;;;17.59;57.61;102096.94;5069370;28;45598;-81
2022/05/08 02:33:45;;;;;;;;;16.00;13.67;;;;;17.58;57.46;102100.56;5079503;28;45865;-81
2022/05/08 02:36:10;;;;;;;;;17.33;16.33;;;;;17.50;57.29;102089.31;5062184;28;45393;-81
2022/05/08 02:38:38;;;;;;;;;19.67;15.33;;;;;17.54;57.49;102099.00;5066987;28;45493;-81
2022/05/08 02:41:03;;;;;;;;;12.67;12.67;;;;;17.53;57.53;102102.63;5079329;27;45489;-81
2022/05/08 02:43:29;;;;;;;;;17.33;16.33;;;;;17.49;57.52;102098.38;5061118;28;47281;-81
2022/05/08 02:45:59;;;;;;;;;19.67;18.33;;;;;17.43;57.40;102091.44;5079014;28;45299;-81
2022/05/08 02:48:25;;;;;;;;;19.33;16.33;;;;;17.42;57.77;102096.91;5079481;28;45389;-81
2022/05/08 02:50:50;;;;;;;;;32.67;21.67;;;;;17.45;58.01;102104.84;5077943;28;45480;-80
2022/05/08 02:53:16;;;;;;;;;17.67;16.67;;;;;17.41;58.05;102103.25;5060435;28;45447;-81
2022/05/08 02:58:34;;;;;;;;;19.67;15.00;;;;;17.19;58.09;102085.47;5058808;28;45345;-81
2022/05/08 03:01:06;;;;;;;;;16.67;16.67;;;;;17.29;58.36;102105.63;5060868;28;45445;-80
2022/05/08 03:03:31;;;;;;;;;18.33;16.67;;;;;17.11;58.47;102078.72;5078073;28;46212;-81
2022/05/08 03:05:57;;;;;;;;;22.67;19.33;;;;;17.25;58.25;102112.09;5038400;28;45387;-81
2022/05/08 03:08:23;;;;;;;;;22.00;19.33;;;;;17.17;58.33;102108.06;5036929;28;45444;-81
2022/05/08 03:13:38;;;;;;;;;68.00;51.75;;;;;17.16;59.05;102114.38;5062950;28;45802;-80
2022/05/08 03:16:05;;;;;;;;;47.67;38.00;;;;;17.12;58.91;102116.38;5069996;28;45483;-82
2022/05/08 03:18:31;;;;;;;;;31.67;28.00;;;;;17.01;59.26;102100.72;5057079;28;45798;-81
2022/05/08 03:20:56;;;;;;;;;30.67;26.67;;;;;17.07;59.29;102118.44;5064644;27;45465;-81
2022/05/08 03:23:22;;;;;;;;;25.67;21.00;;;;;17.00;59.37;102100.81;5068407;28;46022;-81
2022/05/08 03:25:47;;;;;;;;;20.33;20.33;;;;;16.98;59.45;102100.03;5075977;28;45861;-81
2022/05/08 03:28:18;;;;;;;;;20.67;18.00;;;;;16.93;59.19;102094.84;5077050;28;45618;-80
2022/05/08 03:30:44;;;;;;;;;23.00;20.33;;;;;16.99;59.50;102113.41;5070697;28;45485;-81
2022/05/08 03:33:10;;;;;;;;;22.67;22.00;;;;;16.93;59.96;102108.31;5056639;28;46605;-81
2022/05/08 03:35:36;;;;;;;;;26.67;24.33;;;;;17.00;59.41;102115.16;5057244;28;45884;-81
2022/05/08 03:38:02;;;;;;;;;28.67;23.67;;;;;17.02;59.53;102115.06;5069331;28;45449;-83
2022/05/08 03:40:27;;;;;;;;;22.33;20.00;;;;;16.92;59.48;102105.69;5070971;28;45404;-81
2022/05/08 03:42:53;;;;;;;;;28.00;22.67;;;;;16.96;59.54;102104.59;5071744;28;45990;-80
2022/05/08 03:45:19;;;;;;;;;26.33;21.33;;;;;16.92;59.45;102101.19;5057916;28;45289;-80
2022/05/08 03:47:44;;;;;;;;;28.00;25.00;;;;;16.88;59.70;102092.38;5062853;28;45443;-80
2022/05/08 03:50:10;;;;;;;;;30.00;26.33;;;;;16.86;59.46;102082.63;5078586;28;45481;-80
2022/05/08 03:52:35;;;;;;;;;25.00;22.33;;;;;17.06;59.66;102116.66;5077809;28;45495;-80
2022/05/08 03:55:02;;;;;;;;;25.00;20.67;;;;;17.04;59.78;102116.75;5078018;28;45396;-80
2022/05/08 03:57:27;;;;;;;;;32.67;26.67;;;;;17.03;59.73;102123.06;5070392;28;45570;-80
2022/05/08 03:59:53;;;;;;;;;26.67;22.00;;;;;16.90;59.50;102100.38;5058353;28;45518;-80
2022/05/08 04:02:18;;;;;;;;;27.00;25.33;;;;;17.01;59.61;102113.31;5057346;28;53390;-80
2022/05/08 04:04:43;;;;;;;;;30.33;26.00;;;;;17.01;59.80;102110.63;5057866;28;45455;-80
2022/05/08 04:07:08;;;;;;;;;27.67;24.33;;;;;16.97;59.84;102100.94;5056993;28;51802;-80
2022/05/08 04:09:34;;;;;;;;;25.33;23.67;;;;;17.04;59.54;102113.16;5058198;28;45338;-81
2022/05/08 04:11:59;;;;;;;;;28.67;24.00;;;;;17.00;59.48;102106.22;5059514;28;45426;-81
2022/05/08 04:14:24;;;;;;;;;30.00;26.67;;;;;16.84;59.50;102087.22;5074403;28;45896;-81
2022/05/08 04:16:50;;;;;;;;;31.00;25.67;;;;;17.06;59.92;102120.22;5076060;28;45330;-81
2022/05/08 04:19:15;;;;;;;;;28.67;27.00;;;;;16.97;60.03;102101.81;5078173;28;45264;-81
2022/05/08 04:21:41;;;;;;;;;30.33;28.67;;;;;17.07;59.97;102122.00;5066494;28;45945;-81
2022/05/08 04:24:18;;;;;;;;;29.67;25.00;;;;;16.90;59.72;102091.44;5057323;28;45409;-82
2022/05/08 04:26:45;;;;;;;;;35.33;26.33;;;;;17.03;59.54;102117.69;5059860;28;45339;-82
2022/05/08 04:29:10;;;;;;;;;25.00;22.67;;;;;17.05;59.78;102129.28;5075121;28;45826;-82
2022/05/08 04:31:36;;;;;;;;;30.33;26.67;;;;;16.95;59.60;102105.53;5067313;28;62567;-82
2022/05/08 04:34:02;;;;;;;;;31.33;27.33;;;;;16.84;59.70;102092.63;5057507;28;45359;-82
2022/05/08 04:36:27;;;;;;;;;36.67;31.33;;;;;17.05;60.05;102134.66;5056922;28;45504;-82
2022/05/08 04:38:53;;;;;;;;;33.33;29.67;;;;;16.96;59.90;102110.00;5057759;28;45386;-82
2022/05/08 04:41:19;;;;;;;;;30.00;28.00;;;;;17.01;60.05;102118.72;5058865;28;46136;-81
2022/05/08 04:43:44;;;;;;;;;30.33;25.67;;;;;16.82;59.62;102081.91;5077745;28;45483;-82
2022/05/08 04:46:10;;;;;;;;;33.33;31.67;;;;;17.11;59.99;102130.78;5067519;28;45645;-80
2022/05/08 04:48:37;;;;;;;;;35.67;31.67;;;;;16.96;59.99;102116.25;5057788;28;45404;-81
2022/05/08 04:51:02;;;;;;;;;29.67;27.67;;;;;17.11;59.72;102143.38;5056858;28;45432;-81
2022/05/08 04:53:28;;;;;;;;;29.00;27.33;;;;;17.09;59.63;102138.97;5056572;28;45338;-81
2022/05/08 04:55:53;;;;;;;;;33.00;26.00;;;;;17.09;59.94;102141.66;5057393;28;45315;-80
2022/05/08 04:58:18;;;;;;;;;30.00;27.67;;;;;16.91;59.70;102115.59;5057711;28;45410;-80
2022/05/08 05:00:44;;;;;;;;;32.33;28.67;;;;;17.11;59.72;102148.78;5076024;28;46090;-80
2022/05/08 05:03:09;;;;;;;;;32.67;25.00;;;;;17.06;59.34;102146.31;5072599;28;45446;-80
2022/05/08 05:05:35;;;;;;;;;30.00;25.33;;;;;17.05;59.24;102144.56;5058720;28;45501;-80
2022/05/08 05:08:00;;;;;;;;;30.33;27.33;;;;;17.15;59.57;102153.94;5077408;28;45510;-81
2022/05/08 05:10:25;;;;;;;;;32.00;26.33;;;;;17.15;59.58;102156.63;5076566;28;46127;-81
2022/05/08 05:12:53;;;;;;;;;28.00;25.67;;;;;17.15;59.32;102161.16;5059058;28;45574;-81
2022/05/08 05:15:18;;;;;;;;;29.00;27.33;;;;;17.15;59.25;102159.31;5075808;28;45399;-81
2022/05/08 05:17:44;;;;;;;;;27.00;24.67;;;;;17.02;59.32;102139.31;5057249;28;45454;-81
2022/05/08 05:20:09;;;;;;;;;27.00;24.00;;;;;17.05;59.37;102150.81;5056521;28;46327;-80
2022/05/08 05:22:35;;;;;;;;;28.67;24.00;;;;;16.98;59.59;102135.91;5056493;28;45497;-81
2022/05/08 05:25:02;;;;;;;;;31.33;25.00;;;;;17.05;59.42;102156.22;5041219;28;45478;-80
2022/05/08 05:27:28;;;;;;;;;33.00;29.33;;;;;17.05;59.19;102153.50;5056512;28;45380;-80
2022/05/08 05:29:54;;;;;;;;;33.00;24.33;;;;;17.07;59.44;102170.47;5056351;28;46333;-80
2022/05/08 05:32:19;;;;;;;;;31.33;24.67;;;;;17.06;59.32;102173.25;5056340;28;45417;-81
2022/05/08 05:34:45;;;;;;;;;28.00;22.33;;;;;17.12;59.41;102181.03;5073672;28;45492;-81
2022/05/08 05:37:10;;;;;;;;;27.00;23.33;;;;;16.99;59.49;102164.56;5077222;28;45400;-81
2022/05/08 05:39:35;;;;;;;;;35.67;32.00;;;;;17.08;59.28;102184.81;5076255;28;45440;-81
2022/05/08 05:42:01;;;;;;;;;26.00;23.33;;;;;17.13;59.50;102189.97;5058226;28;46148;-81
2022/05/08 05:44:26;;;;;;;;;32.00;24.67;;;;;17.07;59.42;102177.69;5076400;28;45338;-81
2022/05/08 05:49:38;;;;;;;;;33.00;27.00;;;;;17.08;59.35;102188.38;5070544;28;45511;-81
2022/05/08 05:52:05;;;;;;;;;32.00;27.00;;;;;17.16;59.45;102197.91;5076813;28;45408;-81
2022/05/08 05:54:31;;;;;;;;;28.00;25.67;;;;;17.14;59.51;102194.41;5076351;28;45539;-81
2022/05/08 05:56:56;;;;;;;;;34.67;31.00;;;;;17.15;59.58;102197.03;5079092;28;45227;-81
2022/05/08 05:59:22;;;;;;;;;27.33;27.00;;;;;17.17;59.63;102200.53;5060820;28;46235;-81
2022/05/08 06:01:48;;;;;;;;;29.33;27.00;;;;;17.09;59.46;102191.94;5051776;28;45514;-81
2022/05/08 06:04:13;;;;;;;;;30.00;26.33;;;;;17.13;59.32;102203.47;5046548;28;45493;-81
2022/05/08 06:06:39;;;;;;;;;28.33;28.00;;;;;17.10;59.48;102196.41;5053156;28;45679;-81
2022/05/08 06:09:04;;;;;;;;;29.33;23.00;;;;;17.18;59.71;102212.19;5044648;28;47767;-81
2022/05/08 06:11:29;;;;;;;;;31.33;28.00;;;;;17.18;59.54;102207.66;5051763;28;45373;-80
2022/05/08 06:13:55;;;;;;;;;25.00;24.67;;;;;17.19;59.34;102212.13;5041656;28;45681;-81
2022/05/08 06:16:20;;;;;;;;;29.00;24.67;;;;;17.22;59.44;102213.78;5047345;28;45506;-81
2022/05/08 06:18:45;;;;;;;;;24.67;23.00;;;;;17.24;59.39;102214.59;5054376;28;45796;-81
2022/05/08 06:21:11;;;;;;;;;24.67;24.67;;;;;17.13;59.20;102198.06;5050694;28;45524;-81
2022/05/08 06:23:37;;;;;;;;;34.33;27.33;;;;;17.19;59.53;102208.56;5058245;28;45458;-83
2022/05/08 06:26:02;;;;;;;;;34.67;27.00;;;;;17.22;59.31;102213.78;5059955;28;45424;-80
2022/05/08 06:28:28;;;;;;;;;29.33;21.67;;;;;17.07;59.54;102188.47;5054481;28;46085;-81
2022/05/08 06:30:54;;;;;;;;;31.00;26.67;;;;;17.12;59.48;102193.63;5050112;28;45990;-80
2022/05/08 06:33:19;;;;;;;;;29.33;26.67;;;;;17.10;59.21;102185.63;5058704;28;45544;-81
2022/05/08 06:35:44;;;;;;;;;30.67;23.33;;;;;17.26;59.15;102210.00;5043913;28;45535;-80
2022/05/08 06:38:10;;;;;;;;;32.00;26.00;;;;;17.15;59.10;102194.34;5049619;28;45330;-81
2022/05/08 06:40:36;;;;;;;;;28.67;25.67;;;;;17.34;59.46;102223.09;5049384;28;45528;-81
2022/05/08 06:43:02;;;;;;;;;29.33;24.33;;;;;17.20;59.48;102192.31;5053249;28;45445;-81
2022/05/08 06:45:28;;;;;;;;;36.67;25.00;;;;;17.34;59.45;102221.28;5053459;28;45378;-81
2022/05/08 06:47:53;;;;;;;;;26.00;26.00;;;;;17.19;58.96;102192.41;5047299;28;47115;-81
2022/05/08 06:50:19;;;;;;;;;33.67;28.67;;;;;17.35;59.24;102219.44;5053718;28;45516;-81
2022/05/08 06:52:45;;;;;;;;;21.67;19.67;;;;;17.39;58.88;102218.34;5051316;28;45657;-80
2022/05/08 06:55:10;;;;;;;;;27.67;26.33;;;;;17.35;59.37;102222.16;5050209;28;45489;-81
2022/05/08 06:57:36;;;;;;;;;26.33;21.00;;;;;17.40;59.12;102221.00;5042169;28;45930;-81
2022/05/08 07:02:47;;;;;;;;;29.00;24.33;;;;;17.44;59.33;102224.41;5053963;28;45551;-81
2022/05/08 07:05:13;;;;;;;;;29.33;23.67;;;;;17.51;59.16;102234.81;5044309;28;45345;-81
2022/05/08 07:07:38;;;;;;;;;34.00;27.33;;;;;17.39;58.49;102210.28;5039299;28;47271;-81
2022/05/08 07:10:04;;;;;;;;;26.67;21.33;;;;;17.58;58.57;102239.91;5051528;28;45433;-81
2022/05/08 07:12:29;;;;;;;;;27.00;24.67;;;;;17.60;58.73;102244.25;5058749;28;45441;-80
2022/05/08 07:14:55;;;;;;;;;28.00;23.00;;;;;17.60;58.70;102233.47;5057267;28;45411;-81
2022/05/08 07:17:21;;;;;;;;;27.67;23.33;;;;;17.59;58.73;102233.56;5059423;28;45587;-80
2022/05/08 07:19:47;;;;;;;;;33.33;26.67;;;;;17.65;59.04;102234.16;5068924;28;45192;-80
2022/05/08 07:22:15;;;;;;;;;28.33;23.67;;;;;17.47;58.49;102200.88;5062757;28;45377;-86
2022/05/08 07:24:40;;;;;;;;;26.00;19.67;;;;;17.57;58.41;102220.16;5052041;28;45544;-83
2022/05/08 07:27:06;;;;;;;;;32.67;27.67;;;;;17.57;57.76;102213.91;5051840;28;47210;-82
2022/05/08 07:29:31;;;;;;;;;32.67;26.33;;;;;17.80;58.38;102250.50;5068442;28;45422;-83
2022/05/08 07:31:58;;;;;;;;;30.00;23.00;;;;;17.47;58.07;102186.53;5057573;28;45508;-85
2022/05/08 07:37:07;;;;;;;;;29.33;26.33;;;;;17.78;58.20;102238.91;5073548;28;45393;-84
2022/05/08 07:39:33;;;;;;;;;28.33;25.67;;;;;17.86;57.94;102259.22;5071679;28;46612;-86
2022/05/08 07:41:59;;;;;;;;;25.67;24.00;;;;;17.81;57.97;102250.44;5052726;28;45421;-85
2022/05/08 07:44:24;;;;;;;;;30.33;25.67;;;;;17.68;58.02;102227.72;5070527;28;45453;-89
2022/05/08 07:46:51;;;;;;;;;27.33;24.00;;;;;17.87;58.00;102260.06;5068680;28;48183;-85
2022/05/08 07:49:16;;;;;;;;;25.67;25.67;;;;;17.88;57.83;102261.81;5067983;28;45440;-88
2022/05/08 07:51:42;;;;;;;;;28.00;23.33;;;;;17.65;58.19;102212.56;5066657;28;45445;-91
2022/05/08 07:54:07;;;;;;;;;31.00;28.67;;;;;17.81;58.47;102246.88;5054597;28;45719;-83
2022/05/08 07:56:34;;;;;;;;;27.67;25.67;;;;;17.91;58.16;102264.34;5052732;28;46884;-89
2022/05/08 07:58:59;;;;;;;;;30.67;26.67;;;;;17.87;57.88;102263.63;5041320;28;45442;-83
2022/05/08 08:01:25;;;;;;;;;31.33;29.67;;;;;17.78;58.19;102239.78;5046173;28;45426;-88
2022/05/08 08:03:50;;;;;;;;;29.67;25.67;;;;;17.98;57.76;102273.00;5067570;28;45469;-83
2022/05/08 08:06:15;;;;;;;;;28.67;24.33;;;;;17.86;57.65;102253.81;5063686;28;45525;-89
2022/05/08 08:08:41;;;;;;;;;27.33;22.33;;;;;17.64;58.04;102215.34;5053257;28;45392;-91
2022/05/08 08:11:07;;;;;;;;;27.67;26.33;;;;;18.07;57.65;102278.78;5047146;28;45413;-83
2022/05/08 08:13:34;;;;;;;;;29.67;27.33;;;;;17.99;57.90;102269.38;5075708;28;45436;-84
2022/05/08 08:16:02;;;;;;;;;30.00;26.33;;;;;17.87;57.64;102239.34;5074013;28;45379;-84
2022/05/08 08:18:28;;;;;;;;;38.67;29.00;;;;;17.97;57.65;102268.56;5059010;28;45642;-88
2022/05/08 08:20:54;;;;;;;;;28.00;24.00;;;;;17.98;57.86;102251.41;5053754;28;45373;-83
2022/05/08 08:23:19;;;;;;;;;32.00;26.67;;;;;18.14;57.86;102282.97;5049893;28;45439;-84
2022/05/08 08:25:45;;;;;;;;;34.33;28.33;;;;;18.11;57.47;102268.75;5051086;28;46780;-83
2022/05/08 08:28:10;;;;;;;;;24.67;22.33;;;;;17.89;57.00;102226.66;5064945;28;45651;-83
2022/05/08 08:30:36;;;;;;;;;33.00;25.67;;;;;18.26;57.56;102270.66;5060840;28;45548;-86
2022/05/08 08:33:02;;;;;;;;;33.00;24.67;;;;;18.31;57.20;102265.91;5068704;28;45434;-81
2022/05/08 08:35:27;;;;;;;;;27.00;21.67;;;;;18.36;57.03;102265.66;5063184;28;45571;-85
2022/05/08 08:37:54;;;;;;;;;33.67;27.67;;;;;18.42;56.94;102265.31;5049737;28;45525;-83
2022/05/08 08:40:22;;;;;;;;;24.67;23.00;;;;;18.33;56.61;102246.91;5060246;28;45586;-83
2022/05/08 08:42:49;;;;;;;;;31.00;24.33;;;;;18.57;56.73;102269.06;5043662;28;45483;-81
2022/05/08 08:48:06;;;;;;;;;26.67;24.67;;;;;18.69;55.56;102265.69;5067199;28;45450;-79
2022/05/08 09:14:05;;;;;;;;;26.33;25.33;;;;;18.91;54.98;102260.03;5058420;28;45704;-80
2022/05/08 09:16:53;;;;;;;;;30.67;25.67;;;;;18.88;55.41;102256.63;5037752;28;45627;-80
2022/05/08 09:19:38;;;;;;;;;32.33;27.00;;;;;18.95;54.60;102258.91;5048151;28;45960;-80
2022/05/08 09:22:05;;;;;;;;;31.00;27.00;;;;;19.01;54.74;102264.91;5048393;28;46446;-80
2022/05/08 09:24:32;;;;;;;;;28.67;24.33;;;;;19.08;54.26;102277.13;5049337;27;46158;-80
2022/05/08 09:27:18;;;;;;;;;29.00;28.00;;;;;19.06;54.44;102263.72;5053022;28;45580;-80
2022/05/08 09:29:44;;;;;;;;;32.00;28.00;;;;;19.16;54.17;102274.91;5028425;28;45595;-80
2022/05/08 09:32:30;;;;;;;;;28.67;24.67;;;;;19.21;54.09;102278.22;5070634;28;45449;-80
2022/05/08 09:34:59;;;;;;;;;27.33;22.33;;;;;19.31;54.10;102274.03;5055481;28;45271;-80
2022/05/08 09:37:25;;;;;;;;;28.00;25.00;;;;;19.35;53.76;102275.59;5057488;28;45572;-80
2022/05/08 09:39:51;;;;;;;;;28.67;26.67;;;;;19.35;53.55;102270.19;5066585;28;45766;-81
2022/05/08 09:42:37;;;;;;;;;34.67;25.00;;;;;19.38;53.55;102277.25;5064042;28;46559;-80
2022/05/08 09:45:07;;;;;;;;;30.67;27.67;;;;;19.36;53.73;102266.56;5060081;28;45381;-82
2022/05/08 09:47:49;;;;;;;;;34.00;28.67;;;;;19.23;54.03;102235.75;5037553;28;45779;-84
2022/05/08 09:50:16;;;;;;;;;28.33;25.00;;;;;19.56;53.58;102278.06;5064519;28;45764;-88
2022/05/08 09:52:43;;;;;;;;;26.67;22.67;;;;;19.61;53.57;102281.38;5069826;28;45922;-89
2022/05/08 09:55:10;;;;;;;;;26.00;20.67;;;;;19.33;53.37;102212.63;5061920;28;45680;-84
2022/05/08 09:57:36;;;;;;;;;25.67;24.33;;;;;19.66;53.34;102260.31;5050156;28;45508;-89
2022/05/08 10:00:07;;;;;;;;;26.67;24.67;;;;;19.55;52.54;102233.91;5061684;28;45426;-87
2022/05/08 10:02:34;;;;;;;;;35.00;29.67;;;;;19.83;52.60;102267.53;5058583;28;45435;-87
2022/05/08 10:05:00;;;;;;;;;33.00;27.67;;;;;19.67;52.36;102220.66;5034703;28;45476;-89
2022/05/08 10:07:26;;;;;;;;;27.00;23.00;;;;;20.29;51.98;102263.91;5040958;28;46419;-86
2022/05/08 10:15:31;;;;;;;;;35.00;31.00;;;;;20.43;50.98;102262.09;5046636;28;45466;-84
2022/05/08 10:18:22;;;;;;;;;33.00;30.33;;;;;20.47;50.75;102259.22;5047991;28;45486;-83
2022/05/08 10:21:13;;;;;;;;;29.67;22.67;;;;;20.49;50.90;102255.44;5057848;28;45541;-85
2022/05/08 10:23:41;;;;;;;;;36.33;29.67;;;;;20.18;50.60;102196.84;5058158;28;46471;-84
2022/05/08 10:26:26;;;;;;;;;28.67;26.67;;;;;20.53;51.04;102246.13;5059734;28;45335;-87
2022/05/08 10:29:16;;;;;;;;;28.67;25.67;;;;;20.77;50.35;102240.22;5051393;28;45563;-85
2022/05/08 10:31:45;;;;;;;;;32.33;29.67;;;;;20.94;49.69;102247.28;5059799;28;45428;-84
2022/05/08 10:34:39;;;;;;;;;28.00;26.00;;;;;21.60;49.16;102224.03;5058214;28;46242;-84
2022/05/08 10:37:44;;;;;;;;;;;;;;;;;;;;;
2022/05/08 10:40:46;;;;;;;;;27.00;21.33;;;;;27.12;38.71;102220.75;5053255;27;45548;-83
2022/05/08 10:43:30;;;;;;;;;26.00;22.33;;;;;26.69;37.60;102227.34;5059939;28;45552;-86
2022/05/08 10:46:16;;;;;;;;;31.33;26.00;;;;;25.38;38.44;102124.81;5044510;28;47159;-83
2022/05/08 10:48:43;;;;;;;;;26.67;24.00;;;;;26.95;37.98;102227.75;5049597;28;45666;-84
2022/05/08 10:51:09;;;;;;;;;25.33;23.33;;;;;27.92;35.82;102216.16;5055002;28;45630;-83
2022/05/08 10:53:36;;;;;;;;;28.00;24.00;;;;;29.34;33.43;102217.03;5057687;28;45648;-90
2022/05/08 10:56:09;;;;;;;;;25.67;23.33;;;;;29.56;33.50;102223.94;5046340;28;45450;-82
2022/05/08 10:58:36;;;;;;;;;19.33;19.33;;;;;31.39;32.03;102204.72;5052218;28;45847;-81
2022/05/08 11:01:09;;;;;;;;;23.33;18.67;;;;;33.37;28.84;102218.09;5045194;28;45662;-82
2022/05/08 11:04:25;;;;;;;;;25.33;22.00;;;;;34.19;27.78;102178.78;5040300;28;45692;-83
2022/05/08 11:07:44;;;;;;;;;23.00;19.67;;;;;34.85;27.24;102206.59;5045400;28;46174;-83
2022/05/08 11:10:55;;;;;;;;;16.67;15.67;;;;;32.95;29.76;102216.56;5009200;28;45461;-85
2022/05/08 11:13:43;;;;;;;;;26.00;24.00;;;;;31.16;29.89;102179.69;5010717;28;45529;-86
2022/05/08 11:16:12;;;;;;;;;23.33;19.67;;;;;30.14;31.87;102169.50;5005861;28;45541;-84
2022/05/08 11:18:57;;;;;;;;;28.00;25.33;;;;;30.02;32.52;102204.66;5013751;28;46072;-82
2022/05/08 11:21:22;;;;;;;;;22.00;17.67;;;;;29.61;34.00;102190.50;5007881;28;45560;-83
2022/05/08 11:24:29;;;;;;;;;22.67;17.00;;;;;29.15;35.35;102170.44;4999834;28;45644;-87
2022/05/08 11:26:57;;;;;;;;;17.00;15.00;;;;;28.93;36.79;102201.91;5001649;28;45550;-85
2022/05/08 11:29:28;;;;;;;;;23.67;23.67;;;;;28.58;34.55;102187.03;4992804;28;47856;-85
2022/05/08 11:38:25;;;;;;;;;18.67;17.00;;;;;28.58;36.25;102198.00;5024464;28;45530;-83
2022/05/08 11:40:51;;;;;;;;;23.00;20.67;;;;;28.51;35.49;102184.03;5065597;28;45492;-82
2022/05/08 11:43:45;;;;;;;;;21.33;17.33;;;;;28.52;36.64;102196.75;5063014;28;45520;-85
2022/05/08 11:46:22;;;;;;;;;22.33;20.67;;;;;28.46;35.22;102202.81;5034372;28;45611;-84
2022/05/08 11:48:59;;;;;;;;;22.33;19.67;;;;;28.32;36.33;102182.19;5059153;28;45399;-84
2022/05/08 11:51:24;;;;;;;;;19.33;15.33;;;;;28.20;37.29;102167.78;5065241;28;45468;-83
2022/05/08 11:53:58;;;;;;;;;18.33;16.67;;;;;27.98;37.22;102130.63;5058061;28;46635;-83
2022/05/08 11:56:35;;;;;;;;;18.67;18.33;;;;;28.22;36.14;102186.84;5060637;28;45518;-83
2022/05/08 11:59:07;;;;;;;;;10.67;10.67;;;;;28.07;37.60;102186.41;5051452;28;45457;-81
2022/05/08 12:01:43;;;;;;;;;16.00;13.00;;;;;27.90;36.66;102176.19;5049207;28;45990;-83
2022/05/08 12:04:41;;;;;;;;;;;;;;;;;;;;;
2022/05/08 12:07:39;;;;;;;;;19.67;19.00;;;;;27.70;38.05;102186.28;5040587;28;67539;-84
2022/05/08 12:10:23;;;;;;;;;21.00;21.00;;;;;27.50;37.26;102189.00;5057126;28;45633;-83
2022/05/08 12:13:13;;;;;;;;;23.00;22.67;;;;;27.52;38.39;102181.50;5039598;28;47480;-82
2022/05/08 12:15:38;;;;;;;;;23.67;21.67;;;;;27.34;37.75;102164.03;5048904;28;45555;-84
2022/05/08 12:18:04;;;;;;;;;21.00;21.00;;;;;27.35;37.38;102163.91;5056599;28;45421;-83